Time;durP1;ratioP1;P1;durP2;ratioP2;P2;SDS_P1;SDS_P2;PMS_P1;PMS_P2;Temp;Humidity;BMP_temperature;BMP_pressure;BME280_temperature;BME280_humidity;BME280_pressure;Samples;Min_cycle;Max_cycle;Signal;HPM_P1;HPM_P2
2022/09/24 00:02:28;;;;;;;15.13;9.50;;;;;8.70;96115.00;;;;8328860;28;20221;-74
2022/09/24 00:06:35;;;;;;;14.07;8.30;;;;;8.80;96123.00;;;;8327900;28;20729;-74
2022/09/24 00:10:41;;;;;;;17.27;9.70;;;;;8.90;96123.00;;;;8328575;28;20224;-74
2022/09/24 00:14:44;;;;;;;34.17;12.70;;;;;8.90;96121.00;;;;8328859;28;20221;-75
2022/09/24 00:18:53;;;;;;;19.37;10.60;;;;;8.90;96123.00;;;;8329039;28;20221;-74
2022/09/24 00:22:56;;;;;;;17.63;10.00;;;;;8.90;96129.00;;;;8328091;28;20224;-74
2022/09/24 00:27:01;;;;;;;16.00;9.47;;;;;8.80;96123.00;;;;8328613;28;20248;-74
2022/09/24 00:31:06;;;;;;;16.67;10.20;;;;;8.80;96120.00;;;;8327812;28;20324;-74
2022/09/24 00:35:17;;;;;;;18.63;9.93;;;;;8.70;96115.00;;;;8328518;28;20232;-74
2022/09/24 00:39:20;;;;;;;18.43;10.07;;;;;8.70;96113.00;;;;8328928;28;20590;-74
2022/09/24 00:43:27;;;;;;;15.53;9.47;;;;;8.70;96116.00;;;;8327053;28;20264;-74
2022/09/24 00:47:36;;;;;;;14.87;9.40;;;;;8.70;96114.00;;;;8328274;28;20225;-74
2022/09/24 00:51:41;;;;;;;16.33;9.03;;;;;8.80;96108.00;;;;8327530;28;20278;-74
2022/09/24 00:55:47;;;;;;;20.50;9.63;;;;;8.80;96103.00;;;;8328039;28;20228;-75
2022/09/24 00:59:53;;;;;;;16.23;9.63;;;;;8.80;96097.00;;;;8328076;28;20228;-74
2022/09/24 01:04:05;;;;;;;12.00;8.00;;;;;8.90;96080.00;;;;8326743;28;20221;-74
2022/09/24 01:08:12;;;;;;;12.50;8.50;;;;;8.90;96078.00;;;;8327074;28;20694;-74
2022/09/24 01:12:27;;;;;;;12.27;8.30;;;;;8.90;96086.00;;;;8328209;28;20224;-74
2022/09/24 01:16:44;;;;;;;10.33;7.17;;;;;9.00;96083.00;;;;8326850;28;20217;-74
2022/09/24 01:21:00;;;;;;;10.33;7.80;;;;;9.10;96087.00;;;;8327410;28;20236;-74
2022/09/24 01:25:10;;;;;;;12.23;8.00;;;;;9.10;96087.00;;;;8326300;28;20224;-74
2022/09/24 01:29:30;;;;;;;14.77;8.70;;;;;9.10;96093.00;;;;8327685;28;20228;-74
2022/09/24 01:33:36;;;;;;;13.57;8.07;;;;;8.90;96089.00;;;;8325915;28;20209;-74
2022/09/24 01:37:43;;;;;;;11.27;7.93;;;;;8.90;96090.00;;;;8327914;28;20232;-75
2022/09/24 01:41:48;;;;;;;13.60;7.40;;;;;8.90;96083.00;;;;8327003;28;20225;-74
2022/09/24 01:45:53;;;;;;;15.23;8.60;;;;;8.90;96066.00;;;;8326591;28;20217;-74
2022/09/24 01:49:56;;;;;;;12.87;8.70;;;;;8.90;96055.00;;;;8326760;28;20225;-74
2022/09/24 01:54:03;;;;;;;14.40;8.90;;;;;8.90;96049.00;;;;8323131;28;20233;-74
2022/09/24 01:58:10;;;;;;;14.90;9.47;;;;;9.00;96051.00;;;;8333082;28;20217;-74
2022/09/24 02:02:26;;;;;;;11.53;8.47;;;;;9.10;96041.00;;;;8333063;28;20263;-73
2022/09/24 02:06:41;;;;;;;14.93;8.03;;;;;9.20;96039.00;;;;8331799;28;20221;-73
2022/09/24 02:10:54;;;;;;;15.07;8.80;;;;;9.30;96039.00;;;;8332373;28;20245;-74
2022/09/24 02:15:09;;;;;;;17.27;9.20;;;;;9.40;96034.00;;;;8332931;28;20217;-73
2022/09/24 02:19:17;;;;;;;14.10;9.43;;;;;9.40;96023.00;;;;8331899;28;20233;-74
2022/09/24 02:23:29;;;;;;;13.40;9.00;;;;;9.50;96022.00;;;;8332537;28;20240;-74
2022/09/24 02:27:32;;;;;;;11.30;8.33;;;;;9.50;96015.00;;;;8332617;28;20670;-74
2022/09/24 02:31:38;;;;;;;11.60;8.03;;;;;9.50;96010.00;;;;8331915;28;20239;-74
2022/09/24 02:35:43;;;;;;;11.10;8.00;;;;;9.60;96007.00;;;;8330825;28;20240;-74
2022/09/24 02:39:47;;;;;;;13.53;8.27;;;;;9.60;96002.00;;;;8323939;28;20289;-74
2022/09/24 02:43:50;;;;;;;15.30;8.03;;;;;9.60;96001.00;;;;8331298;28;20221;-74
2022/09/24 02:47:53;;;;;;;17.43;8.17;;;;;9.60;95999.00;;;;8332014;28;20229;-73
2022/09/24 02:51:57;;;;;;;11.30;7.33;;;;;9.60;95989.00;;;;8330778;28;20354;-74
2022/09/24 02:56:01;;;;;;;7.82;6.60;;;;;9.60;95983.00;;;;8331240;28;20563;-74
2022/09/24 03:00:05;;;;;;;11.23;7.27;;;;;9.60;95980.00;;;;8330771;28;20225;-74
2022/09/24 03:04:08;;;;;;;8.00;6.53;;;;;9.50;95983.00;;;;8355048;22;20614;-75
2022/09/24 03:08:13;;;;;;;10.70;6.73;;;;;9.50;95987.00;;;;8326291;28;20236;-73
2022/09/24 03:12:25;;;;;;;9.73;7.30;;;;;9.40;95989.00;;;;8338256;28;20228;-73
2022/09/24 03:16:28;;;;;;;10.00;6.93;;;;;9.40;95991.00;;;;8335202;28;20244;-73
2022/09/24 03:20:31;;;;;;;8.97;6.40;;;;;9.30;95974.00;;;;8337995;28;20229;-74
2022/09/24 03:24:36;;;;;;;10.43;7.73;;;;;9.20;95976.00;;;;8337918;28;20260;-73
2022/09/24 03:28:39;;;;;;;11.93;7.53;;;;;9.20;95990.00;;;;8333311;28;20823;-74
2022/09/24 03:32:42;;;;;;;10.70;7.67;;;;;9.10;95991.00;;;;8328334;28;20287;-74
2022/09/24 03:36:45;;;;;;;10.07;7.77;;;;;9.10;95982.00;;;;8329386;28;20231;-73
2022/09/24 03:40:50;;;;;;;11.30;8.13;;;;;9.00;95989.00;;;;8304501;28;20275;-73
2022/09/24 03:44:53;;;;;;;10.63;7.30;;;;;9.00;95975.00;;;;8315417;28;20224;-73
2022/09/24 03:48:58;;;;;;;12.90;8.57;;;;;9.00;95978.00;;;;8331606;28;20278;-74
2022/09/24 03:53:01;;;;;;;12.13;8.00;;;;;9.00;95983.00;;;;8341448;28;20247;-74
2022/09/24 03:57:05;;;;;;;13.57;7.43;;;;;9.10;95975.00;;;;8339032;28;20225;-74
2022/09/24 04:01:10;;;;;;;10.17;7.07;;;;;9.20;95978.00;;;;8333330;28;20233;-74
2022/09/24 04:05:14;;;;;;;9.97;6.97;;;;;9.30;95982.00;;;;8337567;28;20232;-74
2022/09/24 04:09:17;;;;;;;14.00;7.97;;;;;9.30;95977.00;;;;8335085;28;20236;-74
2022/09/24 04:13:22;;;;;;;12.40;7.50;;;;;9.40;95985.00;;;;8341781;28;20815;-74
2022/09/24 04:17:30;;;;;;;8.93;7.10;;;;;9.40;95966.00;;;;8332411;28;20236;-74
2022/09/24 04:21:33;;;;;;;11.30;7.67;;;;;9.50;95975.00;;;;8332448;28;20263;-74
2022/09/24 04:25:45;;;;;;;11.70;7.70;;;;;9.50;95977.00;;;;8322190;28;20271;-74
2022/09/24 04:29:50;;;;;;;11.90;7.80;;;;;9.60;95980.00;;;;8303909;28;20240;-74
2022/09/24 04:33:53;;;;;;;9.57;7.40;;;;;9.60;95976.00;;;;8336342;28;20290;-74
2022/09/24 04:37:56;;;;;;;11.67;7.30;;;;;9.60;95963.00;;;;8336740;28;20221;-74
2022/09/24 04:41:59;;;;;;;11.37;7.27;;;;;9.60;95956.00;;;;8343635;28;20229;-74
2022/09/24 04:46:05;;;;;;;10.83;7.77;;;;;9.50;95972.00;;;;8335871;28;20223;-74
2022/09/24 04:50:10;;;;;;;10.50;8.00;;;;;9.50;95964.00;;;;8328765;28;20274;-74
2022/09/24 04:54:13;;;;;;;11.07;7.87;;;;;9.40;95967.00;;;;8334174;28;20244;-74
2022/09/24 04:58:16;;;;;;;13.23;8.33;;;;;9.40;95953.00;;;;8340993;28;20774;-74
2022/09/24 05:02:22;;;;;;;12.63;9.10;;;;;9.40;95953.00;;;;8336618;28;20247;-74
2022/09/24 05:06:26;;;;;;;12.67;8.40;;;;;9.40;95946.00;;;;8332839;28;20272;-74
2022/09/24 05:10:31;;;;;;;12.50;8.40;;;;;9.40;95945.00;;;;8336459;28;20236;-74
2022/09/24 05:14:35;;;;;;;10.93;8.60;;;;;9.50;95948.00;;;;8340691;28;20224;-73
2022/09/24 05:18:40;;;;;;;13.17;8.50;;;;;9.60;95956.00;;;;8338614;28;20255;-74
2022/09/24 05:22:43;;;;;;;14.53;8.17;;;;;9.60;95957.00;;;;8323893;28;20228;-73
2022/09/24 05:27:11;;;;;;;13.93;8.53;;;;;9.70;95957.00;;;;8324795;28;20746;-74
2022/09/24 05:31:14;;;;;;;14.53;8.67;;;;;9.80;95956.00;;;;8315047;28;20667;-73
2022/09/24 05:35:19;;;;;;;12.73;9.13;;;;;9.80;95957.00;;;;8339688;28;20290;-73
2022/09/24 05:39:22;;;;;;;14.20;8.60;;;;;9.80;95943.00;;;;8327368;28;20236;-73
2022/09/24 05:43:27;;;;;;;11.90;8.70;;;;;9.90;95943.00;;;;8318069;28;20234;-73
2022/09/24 05:47:30;;;;;;;12.60;8.50;;;;;9.90;95952.00;;;;8322188;28;20234;-73
2022/09/24 05:51:35;;;;;;;13.27;9.48;;;;;10.00;95948.00;;;;8308359;28;20226;-73
2022/09/24 05:55:38;;;;;;;12.02;8.70;;;;;10.10;95934.00;;;;8320901;28;20264;-73
2022/09/24 05:59:41;;;;;;;16.05;10.32;;;;;10.20;95932.00;;;;8337322;28;20230;-74
2022/09/24 06:03:44;;;;;;;11.23;9.18;;;;;10.30;95934.00;;;;8338996;28;20230;-74
2022/09/24 06:07:49;;;;;;;15.03;10.30;;;;;10.50;95936.00;;;;8337459;28;20294;-74
2022/09/24 06:11:53;;;;;;;14.70;8.85;;;;;10.60;95947.00;;;;8337580;28;20229;-73
2022/09/24 06:16:00;;;;;;;15.82;8.70;;;;;10.70;95948.00;;;;8325900;28;20226;-73
2022/09/24 06:20:04;;;;;;;13.45;8.25;;;;;10.80;95946.00;;;;8335067;28;20228;-73
2022/09/24 06:24:08;;;;;;;13.95;8.80;;;;;10.90;95943.00;;;;8332902;28;20220;-74
2022/09/24 06:28:11;;;;;;;10.82;7.95;;;;;11.00;95948.00;;;;8332616;28;20609;-74
2022/09/24 06:32:15;;;;;;;12.20;7.87;;;;;11.10;95954.00;;;;8333084;28;20237;-73
2022/09/24 06:36:19;;;;;;;9.65;8.00;;;;;11.10;95960.00;;;;8314820;28;20253;-73
2022/09/24 06:40:24;;;;;;;13.10;8.30;;;;;11.20;95957.00;;;;8301896;28;20256;-76
2022/09/24 06:44:28;;;;;;;13.05;8.13;;;;;11.20;95955.00;;;;8315096;28;20230;-73
2022/09/24 06:48:31;;;;;;;17.38;9.50;;;;;11.30;95954.00;;;;8305946;28;20288;-75
2022/09/24 06:52:34;;;;;;;11.90;8.32;;;;;11.20;95952.00;;;;8323191;28;20264;-76
2022/09/24 06:56:39;;;;;;;17.10;8.88;;;;;11.20;95951.00;;;;8340478;28;20228;-78
2022/09/24 07:00:42;;;;;;;14.73;9.05;;;;;11.20;95950.00;;;;8328212;28;20288;-76
2022/09/24 07:04:46;;;;;;;14.73;9.02;;;;;11.20;95949.00;;;;8317515;28;20236;-73
2022/09/24 07:08:50;;;;;;;17.92;9.45;;;;;11.20;95957.00;;;;8326323;28;20290;-77
2022/09/24 07:12:55;;;;;;;14.80;9.50;;;;;11.30;95953.00;;;;8324697;28;21015;-76
2022/09/24 07:16:58;;;;;;;14.85;11.05;;;;;11.40;95972.00;;;;8305129;28;20443;-75
2022/09/24 07:21:01;;;;;;;13.30;9.80;;;;;11.70;95972.00;;;;8340510;28;20225;-76
2022/09/24 07:25:07;;;;;;;11.95;8.65;;;;;11.80;95975.00;;;;8342394;28;20236;-78
2022/09/24 07:29:12;;;;;;;15.70;7.95;;;;;11.90;95970.00;;;;8348839;28;20224;-77
2022/09/24 07:33:15;;;;;;;15.02;8.75;;;;;12.10;95959.00;;;;8333308;28;20240;-77
2022/09/24 07:37:18;;;;;;;11.52;8.73;;;;;12.20;95958.00;;;;8338950;28;20220;-76
2022/09/24 07:41:21;;;;;;;11.70;8.50;;;;;12.40;95974.00;;;;8324870;28;20228;-77
2022/09/24 07:45:28;;;;;;;12.18;8.32;;;;;12.60;95970.00;;;;8333506;28;20233;-76
2022/09/24 07:49:32;;;;;;;11.10;8.40;;;;;12.80;95981.00;;;;8329630;28;20254;-77
2022/09/24 07:53:35;;;;;;;12.48;8.73;;;;;12.90;95981.00;;;;8308167;28;20232;-76
2022/09/24 07:57:38;;;;;;;11.18;8.20;;;;;13.20;95986.00;;;;8322061;28;20287;-76
2022/09/24 08:01:43;;;;;;;12.70;8.40;;;;;13.50;95987.00;;;;8342619;28;20285;-76
2022/09/24 08:05:46;;;;;;;14.27;8.20;;;;;13.80;95984.00;;;;8341265;28;20234;-76
2022/09/24 08:10:00;;;;;;;12.35;8.82;;;;;14.10;95988.00;;;;8336103;28;20244;-76
2022/09/24 08:14:03;;;;;;;9.35;8.18;;;;;14.30;95991.00;;;;8343429;28;20231;-76
2022/09/24 08:18:08;;;;;;;11.25;8.50;;;;;14.50;95991.00;;;;8316055;28;21113;-75
2022/09/24 08:22:13;;;;;;;12.48;8.30;;;;;14.70;96000.00;;;;8311046;28;20236;-75
2022/09/24 08:26:16;;;;;;;14.65;8.65;;;;;14.90;95996.00;;;;8310084;28;20225;-75
2022/09/24 08:30:19;;;;;;;12.35;8.15;;;;;15.20;95998.00;;;;8316345;28;20237;-75
2022/09/24 08:34:24;;;;;;;10.73;8.45;;;;;15.50;95983.00;;;;8324915;28;20270;-80
2022/09/24 08:38:27;;;;;;;13.70;8.43;;;;;15.90;95990.00;;;;8333914;28;20225;-80
2022/09/24 08:42:39;;;;;;;10.85;8.60;;;;;16.30;95989.00;;;;8333570;28;20290;-80
2022/09/24 08:51:20;;;;;;;8.63;7.38;;;;;17.10;95986.00;;;;8336262;28;20243;-80
2022/09/24 08:55:31;;;;;;;14.48;7.57;;;;;17.20;95994.00;;;;8321559;28;20300;-81
2022/09/24 08:59:36;;;;;;;11.48;8.07;;;;;17.40;95991.00;;;;8332884;28;20232;-79
2022/09/24 09:03:45;;;;;;;9.23;7.75;;;;;17.80;95999.00;;;;8345046;28;20228;-81
2022/09/24 09:07:59;;;;;;;11.95;7.65;;;;;18.10;95998.00;;;;8328690;28;20245;-82
2022/09/24 09:12:08;;;;;;;12.93;7.15;;;;;18.50;95997.00;;;;8326848;28;20311;-75
2022/09/24 09:16:22;;;;;;;10.07;6.95;;;;;18.90;95994.00;;;;8323350;28;20274;-75
2022/09/24 09:20:30;;;;;;;11.23;7.38;;;;;19.10;96002.00;;;;8322310;28;20240;-74
2022/09/24 09:24:42;;;;;;;11.77;6.95;;;;;19.20;96005.00;;;;8337838;28;20717;-76
2022/09/24 09:28:46;;;;;;;14.40;7.43;;;;;19.40;96003.00;;;;8346278;28;20221;-76
2022/09/24 09:33:20;;;;;;;10.45;7.30;;;;;19.50;96008.00;;;;8339936;28;20229;-76
2022/09/24 09:37:29;;;;;;;8.77;6.65;;;;;19.90;96008.00;;;;8317959;28;20224;-75
2022/09/24 09:41:40;;;;;;;8.88;6.80;;;;;20.40;95999.00;;;;8340645;28;20236;-75
2022/09/24 09:45:50;;;;;;;10.10;7.05;;;;;20.70;96004.00;;;;8320390;28;20217;-74
2022/09/24 09:49:57;;;;;;;9.48;6.32;;;;;20.70;96003.00;;;;8333335;28;20212;-75
2022/09/24 09:54:02;;;;;;;8.18;6.22;;;;;20.90;96007.00;;;;8356568;28;20235;-75
2022/09/24 09:58:19;;;;;;;7.13;6.18;;;;;21.00;96004.00;;;;8334215;28;20236;-75
2022/09/24 10:02:25;;;;;;;9.40;6.38;;;;;21.10;96007.00;;;;8342235;28;20617;-75
2022/09/24 10:06:31;;;;;;;11.65;6.03;;;;;21.00;96006.00;;;;8333642;28;20221;-75
2022/09/24 10:10:34;;;;;;;10.73;6.22;;;;;20.80;96003.00;;;;8330674;28;20719;-75
2022/09/24 10:14:38;;;;;;;9.35;6.47;;;;;20.80;96008.00;;;;8331237;28;20232;-72
2022/09/24 10:18:46;;;;;;;7.55;6.63;;;;;20.80;96016.00;;;;8330390;28;20312;-73
2022/09/24 10:22:51;;;;;;;10.25;6.50;;;;;20.70;96013.00;;;;8337619;28;20224;-72
2022/09/24 10:26:54;;;;;;;10.23;7.15;;;;;20.60;96014.00;;;;8346086;28;20278;-72
2022/09/24 10:31:01;;;;;;;8.88;6.18;;;;;20.40;96014.00;;;;8344800;28;20240;-77
2022/09/24 10:35:20;;;;;;;7.68;6.43;;;;;20.20;96010.00;;;;8342067;28;20232;-77
2022/09/24 10:39:23;;;;;;;8.13;6.15;;;;;20.20;96024.00;;;;8342436;28;20253;-77
2022/09/24 10:43:27;;;;;;;9.05;6.00;;;;;20.10;96024.00;;;;8337353;28;20274;-77
2022/09/24 10:47:39;;;;;;;9.80;6.25;;;;;20.10;96030.00;;;;8327084;28;20799;-77
2022/09/24 10:51:52;;;;;;;9.07;6.78;;;;;20.10;96028.00;;;;8321299;28;20282;-77
2022/09/24 10:56:13;;;;;;;7.85;6.13;;;;;20.30;96022.00;;;;8336489;28;20217;-75
2022/09/24 11:00:19;;;;;;;8.98;6.22;;;;;20.30;96022.00;;;;8341133;28;20255;-75
2022/09/24 11:04:39;;;;;;;8.63;6.60;;;;;20.20;96015.00;;;;8340896;28;20270;-76
2022/09/24 11:08:53;;;;;;;9.02;6.05;;;;;20.20;96024.00;;;;8323051;28;20613;-73
2022/09/24 11:13:07;;;;;;;9.55;7.30;;;;;20.10;96023.00;;;;8336375;28;20223;-73
2022/09/24 11:17:31;;;;;;;7.40;6.60;;;;;19.90;96025.00;;;;8334388;28;20668;-74
2022/09/24 11:21:57;;;;;;;8.80;6.47;;;;;19.60;96026.00;;;;8311558;28;20633;-73
2022/09/24 11:26:06;;;;;;;10.45;6.45;;;;;19.50;96016.00;;;;8321865;28;20712;-73
2022/09/24 11:30:13;;;;;;;20.33;7.15;;;;;19.40;96015.00;;;;8325563;28;20244;-73
2022/09/24 11:34:27;;;;;;;12.73;7.03;;;;;19.30;96011.00;;;;8320124;28;20258;-74
2022/09/24 11:38:46;;;;;;;13.18;7.20;;;;;19.20;96011.00;;;;8316107;28;20209;-74
2022/09/24 11:43:02;;;;;;;11.23;7.40;;;;;19.20;96014.00;;;;8321291;28;20629;-74
2022/09/24 11:47:17;;;;;;;10.75;7.28;;;;;19.00;96015.00;;;;8296701;28;20311;-73
2022/09/24 11:51:32;;;;;;;10.18;7.97;;;;;18.90;96013.00;;;;8302275;28;20225;-73
2022/09/24 11:55:43;;;;;;;12.25;7.78;;;;;19.00;96019.00;;;;8306836;28;20278;-73
2022/09/24 11:59:54;;;;;;;11.35;8.52;;;;;18.90;96019.00;;;;8295387;28;20250;-74
2022/09/24 12:04:03;;;;;;;14.52;8.07;;;;;18.70;96017.00;;;;8325258;28;21074;-73
2022/09/24 12:08:12;;;;;;;9.15;8.23;;;;;18.30;96015.00;;;;8330519;28;20259;-73
2022/09/24 12:12:21;;;;;;;10.93;8.68;;;;;18.00;96013.00;;;;8331735;28;21853;-74
2022/09/24 12:16:27;;;;;;;19.73;9.23;;;;;17.80;96012.00;;;;8335649;28;20233;-76
2022/09/24 12:20:32;;;;;;;15.88;9.60;;;;;17.70;96010.00;;;;8322857;28;20237;-76
2022/09/24 12:24:39;;;;;;;14.35;10.27;;;;;17.60;96010.00;;;;8336676;28;20236;-75
2022/09/24 12:33:30;;;;;;;12.27;9.80;;;;;17.50;96005.00;;;;8289797;28;20237;-76
2022/09/24 12:37:37;;;;;;;22.50;15.23;;;;;17.40;96006.00;;;;8304231;28;20282;-77
2022/09/24 12:41:43;;;;;;;16.13;11.23;;;;;17.20;95999.00;;;;8329347;28;20237;-77
2022/09/24 12:45:55;;;;;;;17.17;11.27;;;;;17.30;95997.00;;;;8331448;28;20232;-76
2022/09/24 12:50:00;;;;;;;16.77;11.32;;;;;17.30;95992.00;;;;8318493;28;20222;-74
2022/09/24 12:54:08;;;;;;;17.15;11.02;;;;;17.30;95989.00;;;;8328111;28;20757;-76
2022/09/24 12:58:29;;;;;;;24.67;11.80;;;;;17.20;95989.00;;;;8322722;28;20220;-77
2022/09/24 13:02:47;;;;;;;20.42;11.95;;;;;17.20;95986.00;;;;8329677;28;20233;-76
2022/09/24 13:06:50;;;;;;;19.67;13.07;;;;;17.30;95992.00;;;;8290815;28;20257;-77
2022/09/24 13:10:55;;;;;;;17.77;12.90;;;;;17.60;95994.00;;;;8295022;28;20217;-77
2022/09/24 13:15:01;;;;;;;25.70;12.13;;;;;17.70;95999.00;;;;8323421;28;20225;-74
2022/09/24 13:19:18;;;;;;;14.98;11.90;;;;;17.60;95991.00;;;;8335030;28;20244;-74
2022/09/24 13:23:46;;;;;;;17.80;12.15;;;;;17.40;95980.00;;;;8343641;28;20275;-75
2022/09/24 13:28:03;;;;;;;16.42;12.18;;;;;17.20;95985.00;;;;8336454;28;20232;-75
2022/09/24 13:32:08;;;;;;;19.33;12.48;;;;;17.10;95997.00;;;;8331713;28;20227;-75
2022/09/24 13:36:17;;;;;;;14.82;11.40;;;;;17.00;95989.00;;;;8335110;28;20361;-76
2022/09/24 13:40:28;;;;;;;17.60;13.95;;;;;16.90;95981.00;;;;8315282;28;20249;-74
2022/09/24 13:44:35;;;;;;;17.95;12.35;;;;;16.90;95979.00;;;;8339014;28;20224;-80
2022/09/24 13:48:49;;;;;;;24.77;16.80;;;;;16.90;95971.00;;;;8341165;28;20247;-73
2022/09/24 13:52:55;;;;;;;22.67;15.27;;;;;16.80;95963.00;;;;8340798;28;20665;-74
2022/09/24 13:57:02;;;;;;;21.63;14.40;;;;;16.70;95973.00;;;;8348259;28;20239;-78
2022/09/24 14:01:12;;;;;;;25.25;15.15;;;;;16.70;95967.00;;;;8340255;28;20228;-75
2022/09/24 14:05:17;;;;;;;24.15;14.80;;;;;16.60;95974.00;;;;8339001;28;20555;-82
2022/09/24 14:09:33;;;;;;;32.28;18.20;;;;;16.40;95974.00;;;;8338538;28;20217;-76
2022/09/24 14:13:40;;;;;;;32.70;19.90;;;;;16.30;95976.00;;;;8313545;28;20217;-80
2022/09/24 14:17:56;;;;;;;24.02;17.83;;;;;16.30;95964.00;;;;8309344;28;21067;-77
2022/09/24 14:21:59;;;;;;;24.83;16.08;;;;;16.10;95970.00;;;;8306569;28;20225;-77
2022/09/24 14:26:05;;;;;;;28.95;17.65;;;;;15.90;95967.00;;;;8345150;28;20725;-78
2022/09/24 14:30:19;;;;;;;36.60;24.00;;;;;15.90;95977.00;;;;8339334;28;20232;-76
2022/09/24 14:34:27;;;;;;;35.08;21.25;;;;;15.90;95973.00;;;;8334270;28;20221;-78
2022/09/24 14:38:34;;;;;;;35.35;24.15;;;;;15.90;95960.00;;;;8344684;28;20302;-77
2022/09/24 14:42:42;;;;;;;33.33;19.35;;;;;15.90;95952.00;;;;8341210;28;20251;-77
2022/09/24 14:46:49;;;;;;;30.80;19.52;;;;;16.00;95951.00;;;;8336632;28;20538;-77
2022/09/24 14:50:53;;;;;;;31.55;19.33;;;;;16.10;95958.00;;;;8336046;28;20258;-77
2022/09/24 14:55:16;;;;;;;29.45;18.70;;;;;16.10;95959.00;;;;8339236;28;20221;-80
2022/09/24 14:59:29;;;;;;;34.03;19.52;;;;;16.00;95959.00;;;;8345022;28;20232;-84
2022/09/24 15:03:38;;;;;;;28.30;18.50;;;;;16.00;95954.00;;;;8341921;28;20229;-77
2022/09/24 15:07:51;;;;;;;33.22;20.17;;;;;15.90;95959.00;;;;8346639;28;20267;-78
2022/09/24 15:11:56;;;;;;;34.45;21.15;;;;;15.90;95957.00;;;;8341368;28;20236;-78
2022/09/24 15:16:07;;;;;;;32.15;20.10;;;;;15.90;95958.00;;;;8335018;28;20859;-82
2022/09/24 15:20:12;;;;;;;33.30;19.10;;;;;15.80;95950.00;;;;8317843;28;20835;-78
2022/09/24 15:24:15;;;;;;;31.45;19.92;;;;;15.80;95956.00;;;;8310646;28;20233;-77
2022/09/24 15:28:20;;;;;;;31.02;21.10;;;;;15.80;95959.00;;;;8303579;28;20233;-81
2022/09/24 15:32:26;;;;;;;36.78;22.45;;;;;15.80;95959.00;;;;8337858;28;20224;-79
2022/09/24 15:36:30;;;;;;;37.20;21.33;;;;;15.70;95952.00;;;;8236644;28;20222;-78
2022/09/24 15:40:41;;;;;;;37.65;20.98;;;;;15.60;95939.00;;;;8241543;28;20273;-79
2022/09/24 15:44:44;;;;;;;40.70;22.52;;;;;15.60;95945.00;;;;8244346;28;20226;-77
2022/09/24 15:48:49;;;;;;;35.45;22.65;;;;;15.60;95943.00;;;;8235389;28;20317;-81
2022/09/24 15:52:55;;;;;;;47.47;26.73;;;;;15.50;95948.00;;;;8268734;28;20225;-76
2022/09/24 15:57:00;;;;;;;45.08;25.85;;;;;15.50;95953.00;;;;8341953;28;20230;-80
2022/09/24 16:01:03;;;;;;;42.60;23.45;;;;;15.50;95951.00;;;;8343916;28;20225;-75
2022/09/24 16:05:12;;;;;;;47.40;25.40;;;;;15.40;95955.00;;;;8338411;28;20233;-75
2022/09/24 16:09:21;;;;;;;43.58;24.90;;;;;15.40;95941.00;;;;8322800;28;20280;-75
2022/09/24 16:13:25;;;;;;;38.22;23.60;;;;;15.40;95948.00;;;;8323483;28;20275;-77
2022/09/24 16:17:28;;;;;;;41.35;24.55;;;;;15.40;95960.00;;;;8337809;28;20232;-75
2022/09/24 16:21:33;;;;;;;43.40;24.63;;;;;15.30;95955.00;;;;8335360;28;20216;-76
2022/09/24 16:25:36;;;;;;;50.92;26.73;;;;;15.30;95957.00;;;;8321967;28;20267;-74
2022/09/24 16:29:40;;;;;;;52.28;27.75;;;;;15.30;95960.00;;;;8328239;28;20217;-75
2022/09/24 16:33:43;;;;;;;51.88;27.45;;;;;15.30;95954.00;;;;8323155;28;20293;-78
2022/09/24 16:37:48;;;;;;;352.95;207.45;;;;;15.20;95952.00;;;;8332926;28;20221;-79
2022/09/24 16:41:51;;;;;;;673.70;466.33;;;;;15.20;95964.00;;;;8341104;28;20224;-78
2022/09/24 16:46:00;;;;;;;291.45;190.25;;;;;15.20;95971.00;;;;8330182;28;20240;-74
2022/09/24 16:50:04;;;;;;;74.75;45.50;;;;;15.20;95961.00;;;;8339880;28;20224;-74
2022/09/24 16:54:09;;;;;;;68.80;43.47;;;;;15.10;95964.00;;;;8332415;28;20236;-75
2022/09/24 16:58:12;;;;;;;82.45;51.30;;;;;15.10;95972.00;;;;8331603;28;20221;-74
2022/09/24 17:02:17;;;;;;;66.45;36.67;;;;;15.00;95970.00;;;;8332136;28;20224;-79
2022/09/24 17:06:22;;;;;;;67.95;40.78;;;;;15.00;95966.00;;;;8333151;28;22299;-85
2022/09/24 17:10:27;;;;;;;60.05;29.65;;;;;15.00;95966.00;;;;8316370;28;20224;-84
2022/09/24 17:14:31;;;;;;;54.97;27.90;;;;;14.90;95960.00;;;;8324946;28;20235;-79
2022/09/24 17:18:34;;;;;;;56.50;27.38;;;;;14.90;95963.00;;;;8312436;28;20642;-83
2022/09/24 17:22:38;;;;;;;54.50;26.30;;;;;14.90;95965.00;;;;8334298;28;20779;-84
2022/09/24 17:26:42;;;;;;;63.58;31.05;;;;;14.90;95967.00;;;;8329495;28;20228;-79
2022/09/24 17:30:46;;;;;;;64.60;32.05;;;;;14.90;95975.00;;;;8333049;28;20231;-82
2022/09/24 17:34:49;;;;;;;72.28;29.48;;;;;14.80;95971.00;;;;8329789;28;20229;-81
2022/09/24 17:38:54;;;;;;;67.38;28.88;;;;;14.80;95974.00;;;;8308958;28;20233;-83
2022/09/24 17:42:59;;;;;;;66.10;28.40;;;;;14.80;95966.00;;;;8325152;28;20275;-85
2022/09/24 17:47:02;;;;;;;70.97;29.30;;;;;14.80;95970.00;;;;8330875;28;20224;-79
2022/09/24 17:51:07;;;;;;;107.38;42.60;;;;;14.80;95976.00;;;;8321193;28;20236;-83
2022/09/24 17:55:10;;;;;;;94.20;39.63;;;;;14.80;95979.00;;;;8327205;28;20709;-81
2022/09/24 17:59:15;;;;;;;68.80;30.60;;;;;14.70;95977.00;;;;8335108;28;20231;-83
2022/09/24 18:03:19;;;;;;;72.53;36.83;;;;;14.70;95978.00;;;;8317027;28;20237;-80
2022/09/24 18:07:23;;;;;;;70.00;29.88;;;;;14.60;95985.00;;;;8323464;28;20613;-80
2022/09/24 18:11:29;;;;;;;77.90;32.25;;;;;14.50;95982.00;;;;8317625;28;20323;-82
2022/09/24 18:15:37;;;;;;;79.57;31.00;;;;;14.60;95983.00;;;;8330846;28;21537;-85
2022/09/24 18:19:40;;;;;;;74.63;32.13;;;;;14.60;95982.00;;;;8328596;28;20566;-80
2022/09/24 18:23:46;;;;;;;84.95;33.60;;;;;14.50;95992.00;;;;8327499;28;20413;-81
2022/09/24 18:27:49;;;;;;;84.93;31.85;;;;;14.50;95977.00;;;;8313607;28;20220;-84
2022/09/24 18:31:54;;;;;;;97.63;34.50;;;;;14.50;95984.00;;;;8318540;28;20228;-82
2022/09/24 18:36:02;;;;;;;95.78;35.70;;;;;14.40;95982.00;;;;8319964;28;20807;-84
2022/09/24 18:40:06;;;;;;;97.65;33.55;;;;;14.40;95993.00;;;;8327469;28;20282;-80
2022/09/24 18:44:11;;;;;;;75.18;31.95;;;;;14.50;95995.00;;;;8320471;28;20225;-86
2022/09/24 18:48:16;;;;;;;93.93;32.88;;;;;14.40;95997.00;;;;8328383;28;20231;-82
2022/09/24 18:52:20;;;;;;;81.38;29.95;;;;;14.40;95990.00;;;;8330942;28;20255;-80
2022/09/24 18:56:24;;;;;;;105.03;34.10;;;;;14.40;95988.00;;;;8328626;28;20701;-82
2022/09/24 19:04:49;;;;;;;133.50;35.35;;;;;14.30;95994.00;;;;8326014;28;20220;-79
2022/09/24 19:08:53;;;;;;;106.38;32.42;;;;;14.20;95997.00;;;;8327722;28;20705;-81
2022/09/24 19:12:56;;;;;;;89.80;33.20;;;;;14.20;95992.00;;;;8332126;28;20237;-81
2022/09/24 19:16:59;;;;;;;98.75;34.80;;;;;14.10;95988.00;;;;8326242;28;20237;-79
2022/09/24 19:21:05;;;;;;;99.95;33.60;;;;;14.10;95998.00;;;;8331026;28;20236;-79
2022/09/24 19:25:09;;;;;;;165.07;38.92;;;;;14.10;96004.00;;;;8323276;28;20233;-78
2022/09/24 19:29:13;;;;;;;107.88;35.20;;;;;14.00;95995.00;;;;8326303;28;20229;-80
2022/09/24 19:33:18;;;;;;;149.02;38.83;;;;;14.00;95996.00;;;;8319861;28;20312;-78
2022/09/24 19:37:23;;;;;;;153.68;39.78;;;;;13.90;95998.00;;;;8326489;28;20236;-80
2022/09/24 19:41:27;;;;;;;140.45;40.20;;;;;13.90;95997.00;;;;8322733;28;20344;-80
2022/09/24 19:45:31;;;;;;;158.70;39.35;;;;;13.90;95991.00;;;;8337660;28;20235;-81
2022/09/24 19:49:37;;;;;;;137.20;38.88;;;;;13.80;96002.00;;;;8326870;28;20771;-79
2022/09/24 19:53:53;;;;;;;129.30;38.47;;;;;13.80;95994.00;;;;8325130;28;20224;-79
2022/09/24 19:57:57;;;;;;;134.00;39.10;;;;;13.90;95988.00;;;;8328931;28;20261;-79
2022/09/24 20:02:00;;;;;;;157.40;41.78;;;;;13.90;95991.00;;;;8322818;28;20283;-81
2022/09/24 20:06:07;;;;;;;163.52;38.97;;;;;13.90;96002.00;;;;8332548;28;20238;-80
2022/09/24 20:10:12;;;;;;;166.85;41.17;;;;;13.90;95989.00;;;;8333408;28;20786;-80
2022/09/24 20:14:16;;;;;;;141.88;42.17;;;;;13.90;95988.00;;;;8337438;28;20235;-79
2022/09/24 20:18:19;;;;;;;167.02;41.80;;;;;13.90;95988.00;;;;8336817;28;20590;-77
2022/09/24 20:22:24;;;;;;;240.75;47.00;;;;;13.80;95988.00;;;;8334512;28;20239;-75
2022/09/24 20:30:54;;;;;;;122.90;38.40;;;;;13.80;95989.00;;;;8320621;28;20299;-77
2022/09/24 20:34:57;;;;;;;213.70;44.13;;;;;13.80;95989.00;;;;8328014;28;20233;-77